This is the latest recevied weather packets stored in our database for station/object K1RFS. If no packets are shown the sender has not sent any weather packets the latest 10 day(s).
| Time | Temp. | Humidity | Pressure | Rain* | Wind** | Luminosity | Snow |
|---|---|---|---|---|---|---|---|
| 1778057560 | 5° C | 88% | 998.9 hPa | 6.1 mm | - | 0 W/m² | - |
| 1778057256 | 5° C | 86% | 998.8 hPa | 8.89 mm | - | 0 W/m² | - |
| 1778056953 | 5.56° C | 83% | 998.6 hPa | 6.1 mm | - | 0 W/m² | - |
| 1778056650 | 7.78° C | 73% | 998.3 hPa | 0 mm | - | 0 W/m² | - |
| 1778056348 | 8.89° C | 77% | 997.5 hPa | 0 mm | - | 0 W/m² | - |
| 1778056045 | 8.89° C | 78% | 997.4 hPa | 0 mm | - | 0 W/m² | - |
| 1778055740 | 8.33° C | 78% | 996.7 hPa | 0 mm | - | 0 W/m² | - |
| 1778055438 | 8.33° C | 79% | 996.6 hPa | 0 mm | - | 0 W/m² | - |
| 1778055136 | 8.33° C | 80% | 996.7 hPa | 0 mm | - | 0 W/m² | - |
| 1778054834 | 8.89° C | 79% | 996.8 hPa | 0 mm | - | 0 W/m² | - |
| 1778054530 | 8.89° C | 78% | 996.7 hPa | 0 mm | - | 0 W/m² | - |
| 1778054228 | 8.89° C | 77% | 996.6 hPa | 0 mm | - | 0 W/m² | - |
| 1778053924 | 8.89° C | 77% | 996.8 hPa | 0 mm | - | 0 W/m² | - |
| 1778053622 | 8.89° C | 77% | 996.6 hPa | 0 mm | - | 0 W/m² | - |
| 1778053319 | 8.89° C | 76% | 997 hPa | 0 mm | - | 0 W/m² | - |
| 1778053016 | 8.89° C | 76% | 996.9 hPa | 0 mm | - | 0 W/m² | - |
| 1778052714 | 9.44° C | 76% | 997 hPa | 0 mm | - | 0 W/m² | - |
| 1778052410 | 9.44° C | 75% | 997.2 hPa | 0 mm | - | 0 W/m² | - |
| 1778052108 | 9.44° C | 75% | 997 hPa | 0 mm | - | 0 W/m² | - |
| 1778051805 | 9.44° C | 76% | 996.9 hPa | 0 mm | - | 0 W/m² | - |
| 1778051503 | 9.44° C | 74% | 996.9 hPa | 0 mm | - | 0 W/m² | - |
| 1778051200 | 10° C | 72% | 996.9 hPa | 0 mm | - | 0 W/m² | - |
| 1778050897 | 10° C | 72% | 996.9 hPa | 0 mm | - | 0 W/m² | - |
| 1778050595 | 10° C | 71% | 996.8 hPa | 0 mm | - | 0 W/m² | - |
| 1778050291 | 10° C | 72% | 997 hPa | 0 mm | - | 0 W/m² | - |
* Rain latest hour (hover to see other rain measurements)
** Current wind speed in m/s (hover to see current wind gust speed)